Time;durP1;ratioP1;P1;durP2;ratioP2;P2;SDS_P1;SDS_P2;PMS_P1;PMS_P2;Temp;Humidity;BMP_temperature;BMP_pressure;BME280_temperature;BME280_humidity;BME280_pressure;Samples;Min_cycle;Max_cycle;Signal;HPM_P1;HPM_P2
2021/12/14 00:00:24;;;;;;;3.10;1.65;;;19.90;62.30;;;;;;4494791;31;20147;-74
2021/12/14 00:02:51;;;;;;;6.65;1.92;;;19.90;62.30;;;;;;4495593;31;20136;-74
2021/12/14 00:05:21;;;;;;;4.18;2.00;;;19.80;62.30;;;;;;4493435;31;20128;-74
2021/12/14 00:07:49;;;;;;;3.88;1.77;;;19.80;62.30;;;;;;4495070;31;20124;-74
2021/12/14 00:13:14;;;;;;;3.88;1.75;;;19.80;62.20;;;;;;4494902;31;20176;-73
2021/12/14 00:15:40;;;;;;;3.33;1.67;;;19.80;62.30;;;;;;4495317;31;20112;-74
2021/12/14 00:18:10;;;;;;;3.70;1.88;;;19.80;62.30;;;;;;4493314;31;20202;-74
2021/12/14 00:21:31;;;;;;;3.72;1.55;;;19.80;62.30;;;;;;4495879;31;20125;-74
2021/12/14 00:24:11;;;;;;;2.78;1.30;;;19.70;62.30;;;;;;4485541;31;20234;-74
2021/12/14 00:26:39;;;;;;;3.60;1.75;;;19.70;63.20;;;;;;4494518;31;20125;-74
2021/12/14 00:29:08;;;;;;;3.92;1.42;;;19.70;62.30;;;;;;4494760;31;20164;-74
2021/12/14 00:31:37;;;;;;;3.47;1.42;;;19.70;62.30;;;;;;4480343;31;20255;-74
2021/12/14 00:34:05;;;;;;;4.13;1.55;;;19.70;62.40;;;;;;4494950;31;20124;-73
2021/12/14 00:36:31;;;;;;;3.58;1.60;;;19.70;62.40;;;;;;4481209;31;20221;-74
2021/12/14 00:38:57;;;;;;;3.72;1.52;;;19.70;62.40;;;;;;4493229;31;20174;-74
2021/12/14 00:41:29;;;;;;;3.00;1.52;;;19.70;62.40;;;;;;4494578;31;20275;-73
2021/12/14 00:43:55;;;;;;;3.28;1.52;;;19.70;62.40;;;;;;4493109;31;20120;-74
2021/12/14 00:46:22;;;;;;;2.47;1.40;;;19.60;62.40;;;;;;4494331;31;20136;-73
2021/12/14 00:48:49;;;;;;;2.72;1.40;;;19.70;62.40;;;;;;4480591;31;20133;-74
2021/12/14 00:51:18;;;;;;;1.85;1.25;;;19.60;62.30;;;;;;4493703;31;20147;-74
2021/12/14 00:53:44;;;;;;;3.67;1.60;;;19.60;62.40;;;;;;4481424;31;20152;-74
2021/12/14 00:56:12;;;;;;;3.80;1.63;;;19.60;62.40;;;;;;4492968;31;20621;-74
2021/12/14 00:58:38;;;;;;;4.35;1.50;;;19.60;62.50;;;;;;4481161;31;20146;-74
2021/12/14 01:01:08;;;;;;;1.52;1.33;;;19.60;62.50;;;;;;4492865;31;20333;-74
2021/12/14 01:03:36;;;;;;;3.05;1.48;;;19.60;62.50;;;;;;4494017;31;20140;-74
2021/12/14 01:06:06;;;;;;;2.38;1.20;;;19.60;62.50;;;;;;4494553;31;20133;-74
2021/12/14 01:08:37;;;;;;;2.63;1.23;;;19.60;62.50;;;;;;4493018;31;20132;-74
2021/12/14 01:11:21;;;;;;;2.30;1.15;;;19.60;62.50;;;;;;4481719;31;20241;-73
2021/12/14 01:13:56;;;;;;;2.67;1.40;;;19.60;62.40;;;;;;4492805;31;20124;-73
2021/12/14 01:16:49;;;;;;;3.38;1.40;;;19.60;62.50;;;;;;4493819;31;20128;-74
2021/12/14 01:19:24;;;;;;;3.58;1.50;;;19.60;62.50;;;;;;4494978;31;20124;-74
2021/12/14 01:22:15;;;;;;;2.67;1.60;;;19.60;62.50;;;;;;4492918;31;20136;-74
2021/12/14 01:27:57;;;;;;;3.30;1.40;;;19.50;62.40;;;;;;4494056;31;20128;-74
2021/12/14 01:30:33;;;;;;;2.40;1.60;;;19.50;62.40;;;;;;4493742;31;20125;-73
2021/12/14 01:33:05;;;;;;;5.35;1.60;;;19.50;62.40;;;;;;4494437;32;20143;-74
2021/12/14 01:35:39;;;;;;;3.00;1.50;;;19.50;62.40;;;;;;4492853;32;20570;-74
2021/12/14 01:38:33;;;;;;;3.13;1.73;;;19.50;62.50;;;;;;4493792;32;20140;-74
2021/12/14 01:41:07;;;;;;;2.67;1.33;;;19.50;62.40;;;;;;4495203;31;20563;-74
2021/12/14 01:43:48;;;;;;;1.88;1.33;;;19.50;62.40;;;;;;4495085;31;20137;-74
2021/12/14 01:46:19;;;;;;;2.78;1.50;;;19.50;62.40;;;;;;4498439;31;20141;-73
2021/12/14 01:48:46;;;;;;;2.42;1.50;;;19.50;62.40;;;;;;4495946;31;20151;-74
2021/12/14 01:51:13;;;;;;;1.88;1.20;;;19.50;62.50;;;;;;4483305;31;20257;-74
2021/12/14 01:53:42;;;;;;;2.03;1.33;;;19.40;62.40;;;;;;4496529;31;20132;-74
2021/12/14 01:56:12;;;;;;;2.05;1.38;;;19.40;62.50;;;;;;4495727;31;20136;-74
2021/12/14 01:58:52;;;;;;;2.95;1.40;;;19.40;62.40;;;;;;4498374;31;20148;-74
2021/12/14 02:01:23;;;;;;;3.08;1.40;;;19.40;62.40;;;;;;4495892;31;20132;-74
2021/12/14 02:03:59;;;;;;;2.55;1.50;;;19.40;62.50;;;;;;4497676;31;20156;-73
2021/12/14 02:06:32;;;;;;;2.40;1.30;;;19.40;62.50;;;;;;4497688;31;20262;-74
2021/12/14 02:09:05;;;;;;;3.20;1.60;;;19.40;62.40;;;;;;4495458;31;20270;-74
2021/12/14 02:11:35;;;;;;;3.47;1.33;;;19.40;62.40;;;;;;4496820;31;20147;-74
2021/12/14 02:14:03;;;;;;;4.00;1.40;;;19.40;62.40;;;;;;4495633;31;20124;-74
2021/12/14 02:16:29;;;;;;;3.75;1.90;;;19.40;63.30;;;;;;4483172;31;20168;-74
2021/12/14 02:19:10;;;;;;;2.97;1.45;;;19.30;62.40;;;;;;4496161;31;20138;-74
2021/12/14 02:21:38;;;;;;;2.10;1.30;;;19.40;62.30;;;;;;4496481;31;20125;-74
2021/12/14 02:24:09;;;;;;;1.50;1.30;;;19.30;62.30;;;;;;4498030;31;20124;-74
2021/12/14 02:26:39;;;;;;;3.17;1.70;;;19.30;62.40;;;;;;4482239;31;20131;-74
2021/12/14 02:29:08;;;;;;;1.88;1.40;;;19.30;62.30;;;;;;4496766;31;20113;-74
2021/12/14 02:31:37;;;;;;;2.92;1.50;;;19.30;62.40;;;;;;4495394;31;20138;-74
2021/12/14 02:34:05;;;;;;;3.72;1.70;;;19.30;62.40;;;;;;4495830;31;20140;-74
2021/12/14 02:36:44;;;;;;;2.67;1.48;;;19.30;62.40;;;;;;4483014;31;20136;-74
2021/12/14 02:42:00;;;;;;;2.40;1.52;;;19.30;62.30;;;;;;4497533;31;20626;-73
2021/12/14 02:44:26;;;;;;;2.53;1.50;;;19.30;62.30;;;;;;4482177;31;20140;-74
2021/12/14 02:47:00;;;;;;;1.50;1.33;;;19.30;62.30;;;;;;4482261;31;20701;-74
2021/12/14 02:49:28;;;;;;;;;;;19.30;62.30;;;;;;4498032;31;20226;-74
2021/12/14 02:51:58;;;;;;;2.35;1.45;;;19.30;62.20;;;;;;4481419;31;20040;-74
2021/12/14 02:54:31;;;;;;;1.88;1.23;;;19.20;62.30;;;;;;4497140;31;20113;-74
2021/12/14 02:57:02;;;;;;;1.75;1.20;;;19.30;62.30;;;;;;4494836;31;20136;-73
2021/12/14 02:59:31;;;;;;;1.92;1.40;;;19.30;62.30;;;;;;4495757;31;20620;-73
2021/12/14 03:02:04;;;;;;;2.05;1.33;;;19.20;62.30;;;;;;4495740;31;20144;-74
2021/12/14 03:04:36;;;;;;;2.05;1.63;;;19.30;62.30;;;;;;4481616;31;20247;-73
2021/12/14 03:07:03;;;;;;;2.17;1.48;;;19.20;62.30;;;;;;4496298;31;20129;-74
2021/12/14 03:09:41;;;;;;;2.28;1.55;;;19.20;62.30;;;;;;4481685;31;20415;-74
2021/12/14 03:12:18;;;;;;;3.38;1.55;;;19.20;62.30;;;;;;4495860;31;20113;-74
2021/12/14 03:14:51;;;;;;;2.15;1.40;;;19.20;62.20;;;;;;4496288;31;20128;-74
2021/12/14 03:17:17;;;;;;;1.65;1.20;;;19.20;62.30;;;;;;4494568;31;20194;-74
2021/12/14 03:19:51;;;;;;;2.50;1.52;;;19.20;62.30;;;;;;4469626;31;20145;-73
2021/12/14 03:22:35;;;;;;;1.55;1.30;;;19.20;62.20;;;;;;4482266;31;20250;-74
2021/12/14 03:25:02;;;;;;;;;;;19.20;62.20;;;;;;4496313;31;20128;-74
2021/12/14 03:27:28;;;;;;;1.33;1.20;;;19.20;62.20;;;;;;4494915;31;20017;-74
2021/12/14 03:29:54;;;;;;;2.05;1.35;;;19.20;62.30;;;;;;4481318;31;20177;-74
2021/12/14 03:32:20;;;;;;;3.88;1.30;;;19.20;62.30;;;;;;4482494;31;20129;-74
2021/12/14 03:34:47;;;;;;;1.85;1.50;;;19.20;62.30;;;;;;4494024;31;20202;-73
2021/12/14 03:37:22;;;;;;;2.08;1.30;;;19.20;62.20;;;;;;4482991;31;20599;-74
2021/12/14 03:39:52;;;;;;;1.67;1.38;;;19.20;62.20;;;;;;4494200;31;20136;-74
2021/12/14 03:42:35;;;;;;;2.17;1.45;;;19.20;62.20;;;;;;4496217;31;20144;-73
2021/12/14 03:45:03;;;;;;;1.88;1.30;;;19.20;62.20;;;;;;4495315;31;20182;-74
2021/12/14 03:47:33;;;;;;;2.00;1.60;;;19.10;62.20;;;;;;4494424;31;20132;-74
2021/12/14 03:50:13;;;;;;;1.73;1.38;;;19.10;62.20;;;;;;4495571;31;20461;-74
2021/12/14 03:52:40;;;;;;;1.75;1.10;;;19.20;62.20;;;;;;4493832;31;20249;-74
2021/12/14 03:55:30;;;;;;;2.17;1.20;;;19.10;62.10;;;;;;4494962;31;20613;-74
2021/12/14 03:57:56;;;;;;;1.73;1.30;;;19.10;62.20;;;;;;4495613;31;20153;-73
2021/12/14 04:00:36;;;;;;;2.10;1.20;;;19.10;62.20;;;;;;4480894;31;20127;-74
2021/12/14 04:03:10;;;;;;;2.42;1.50;;;19.10;62.20;;;;;;4495075;31;20148;-74
2021/12/14 04:05:41;;;;;;;2.00;1.40;;;19.10;62.20;;;;;;4494440;31;20133;-74
2021/12/14 04:08:08;;;;;;;1.98;1.55;;;19.10;62.20;;;;;;4495572;31;20136;-74
2021/12/14 04:10:37;;;;;;;1.83;1.30;;;19.10;62.30;;;;;;4494739;31;20140;-73
2021/12/14 04:13:07;;;;;;;1.60;1.30;;;19.10;62.20;;;;;;4493648;31;20132;-74
2021/12/14 04:15:34;;;;;;;2.25;1.50;;;19.10;62.20;;;;;;4482242;31;21008;-74
2021/12/14 04:18:00;;;;;;;1.75;1.30;;;19.10;62.20;;;;;;4480121;31;20136;-74
2021/12/14 04:20:37;;;;;;;2.17;1.50;;;19.00;62.20;;;;;;4481863;31;20246;-73
2021/12/14 04:23:11;;;;;;;1.90;1.30;;;19.10;62.20;;;;;;4493978;31;20132;-74
2021/12/14 04:25:39;;;;;;;1.77;1.20;;;19.10;62.20;;;;;;4504075;31;20226;-74
2021/12/14 04:28:08;;;;;;;2.38;1.40;;;19.00;62.10;;;;;;4511927;31;20708;-74
2021/12/14 04:30:35;;;;;;;2.53;1.42;;;19.00;62.20;;;;;;4509096;31;20323;-74
2021/12/14 04:33:05;;;;;;;1.77;1.35;;;19.00;62.20;;;;;;4499692;31;20152;-74
2021/12/14 04:35:35;;;;;;;1.65;1.23;;;19.00;62.20;;;;;;4493920;31;20144;-74
2021/12/14 04:38:09;;;;;;;1.55;1.13;;;19.00;62.20;;;;;;4493036;31;20141;-73
2021/12/14 04:54:21;;;;;;;1.90;1.50;;;18.90;62.20;;;;;;4494497;31;20639;-74
2021/12/14 04:56:48;;;;;;;2.55;1.45;;;19.00;62.10;;;;;;4491586;31;20589;-74
2021/12/14 04:59:23;;;;;;;1.90;1.60;;;19.00;62.20;;;;;;4479641;31;20136;-74
2021/12/14 05:01:51;;;;;;;2.13;1.33;;;18.90;62.20;;;;;;4492474;31;20262;-74
2021/12/14 05:04:22;;;;;;;2.35;1.33;;;18.90;62.20;;;;;;4505978;31;20470;-73
2021/12/14 05:06:53;;;;;;;1.65;1.30;;;18.90;62.20;;;;;;4509861;31;20135;-74
2021/12/14 05:09:28;;;;;;;1.83;1.60;;;19.00;62.20;;;;;;4493417;31;20249;-73
2021/12/14 05:11:55;;;;;;;2.40;1.55;;;18.90;62.10;;;;;;4492616;31;20160;-73
2021/12/14 05:14:23;;;;;;;2.10;1.65;;;18.90;63.00;;;;;;4491957;31;20124;-74
2021/12/14 05:17:02;;;;;;;2.58;1.30;;;18.90;62.10;;;;;;4478825;31;20604;-74
2021/12/14 05:19:32;;;;;;;2.30;1.33;;;18.90;62.10;;;;;;4493018;31;20144;-74
2021/12/14 05:22:07;;;;;;;2.55;1.73;;;18.90;62.20;;;;;;4492167;31;20653;-73
2021/12/14 05:24:33;;;;;;;1.52;1.30;;;18.90;62.10;;;;;;4493978;31;20136;-74
2021/12/14 05:27:06;;;;;;;1.90;1.55;;;18.90;62.10;;;;;;4478433;31;20140;-75
2021/12/14 05:29:32;;;;;;;2.33;1.33;;;18.90;62.10;;;;;;4493338;31;20174;-74
2021/12/14 05:32:01;;;;;;;3.53;1.45;;;18.90;62.20;;;;;;4493433;31;20201;-74
2021/12/14 05:34:29;;;;;;;2.00;1.55;;;18.90;62.20;;;;;;4492673;31;20164;-74
2021/12/14 05:36:57;;;;;;;1.83;1.33;;;18.80;62.00;;;;;;4492551;31;20129;-74
2021/12/14 05:39:46;;;;;;;2.28;1.80;;;18.90;62.20;;;;;;4491113;31;20314;-74
2021/12/14 05:45:06;;;;;;;1.58;1.48;;;18.80;62.10;;;;;;4493616;31;20191;-73
2021/12/14 05:47:32;;;;;;;2.63;1.77;;;18.80;62.10;;;;;;4491508;31;20160;-73
2021/12/14 05:49:58;;;;;;;2.35;1.75;;;18.80;62.10;;;;;;4479445;31;20113;-73
2021/12/14 05:52:27;;;;;;;2.28;1.60;;;18.80;62.10;;;;;;4478150;31;20160;-74
2021/12/14 05:54:57;;;;;;;2.03;1.65;;;18.80;62.10;;;;;;4492157;31;20124;-73
2021/12/14 05:57:25;;;;;;;2.22;1.80;;;18.80;62.10;;;;;;4493930;31;20140;-73
2021/12/14 05:59:52;;;;;;;2.47;1.60;;;18.80;62.10;;;;;;4491468;31;20140;-72
2021/12/14 06:02:23;;;;;;;2.83;1.58;;;18.80;62.00;;;;;;4493248;31;20183;-73
2021/12/14 06:04:51;;;;;;;2.15;1.50;;;18.80;62.00;;;;;;4506891;31;20142;-73
2021/12/14 06:07:19;;;;;;;2.00;1.60;;;18.80;62.10;;;;;;4483931;31;20194;-73
2021/12/14 06:09:48;;;;;;;1.77;1.52;;;18.80;62.00;;;;;;4491430;31;20140;-73
2021/12/14 06:12:21;;;;;;;2.47;1.67;;;18.80;62.00;;;;;;4492903;31;20155;-73
2021/12/14 06:14:52;;;;;;;3.17;1.80;;;18.80;62.00;;;;;;4493231;31;20133;-73
2021/12/14 06:17:26;;;;;;;2.50;1.80;;;18.70;62.00;;;;;;4478688;31;20209;-73
2021/12/14 06:19:59;;;;;;;2.58;1.65;;;18.70;62.00;;;;;;4492525;31;20172;-73
2021/12/14 06:22:25;;;;;;;1.55;1.40;;;18.70;62.00;;;;;;4492306;31;20136;-73
2021/12/14 06:24:57;;;;;;;2.20;1.50;;;18.70;62.00;;;;;;4479773;32;20125;-72
2021/12/14 06:27:26;;;;;;;2.55;1.70;;;18.70;62.00;;;;;;4492831;31;20124;-73
2021/12/14 06:29:59;;;;;;;2.30;1.60;;;18.70;62.00;;;;;;4494591;31;20156;-73
2021/12/14 06:32:39;;;;;;;2.58;1.90;;;18.70;62.00;;;;;;4497347;31;20121;-73
2021/12/14 06:35:16;;;;;;;2.78;1.95;;;18.70;62.00;;;;;;4506154;31;20151;-73
2021/12/14 06:38:10;;;;;;;2.75;2.03;;;18.70;62.00;;;;;;4507312;31;20132;-73
2021/12/14 06:41:09;;;;;;;2.75;1.98;;;18.70;62.00;;;;;;4475703;31;20250;-73
2021/12/14 06:43:44;;;;;;;3.05;1.90;;;18.70;62.00;;;;;;4499430;31;20250;-73
2021/12/14 06:46:17;;;;;;;2.15;1.80;;;18.70;62.00;;;;;;4495481;31;20483;-73
2021/12/14 06:48:45;;;;;;;3.08;2.10;;;18.70;62.00;;;;;;4495307;31;20213;-73
2021/12/14 06:51:16;;;;;;;2.47;1.77;;;18.70;62.00;;;;;;4481357;31;20146;-73
2021/12/14 06:53:48;;;;;;;3.45;1.90;;;18.60;61.90;;;;;;4496012;31;20131;-73
2021/12/14 06:56:24;;;;;;;2.65;1.63;;;18.60;61.90;;;;;;4483828;31;20171;-73
2021/12/14 06:59:02;;;;;;;3.15;1.70;;;18.60;62.00;;;;;;4495769;31;20109;-73
2021/12/14 07:01:41;;;;;;;2.55;1.63;;;18.60;62.00;;;;;;4495170;31;20144;-73
2021/12/14 07:04:12;;;;;;;1.83;1.63;;;18.60;61.90;;;;;;4494280;31;20144;-73
2021/12/14 07:06:40;;;;;;;2.85;1.70;;;18.60;62.00;;;;;;4496204;31;20179;-73
2021/12/14 07:09:15;;;;;;;3.10;2.15;;;18.60;61.90;;;;;;4494252;31;20127;-73
2021/12/14 07:11:45;;;;;;;3.00;1.90;;;18.60;61.90;;;;;;4496154;31;20616;-73
2021/12/14 07:14:27;;;;;;;3.33;2.10;;;18.60;61.90;;;;;;4495156;31;20125;-73
2021/12/14 07:16:55;;;;;;;2.40;1.75;;;18.60;61.90;;;;;;4494373;31;20137;-72
2021/12/14 07:19:39;;;;;;;2.65;1.52;;;18.60;62.00;;;;;;4498504;31;20198;-74
2021/12/14 07:22:05;;;;;;;2.63;1.88;;;18.60;61.90;;;;;;4494671;31;20639;-73
2021/12/14 07:24:35;;;;;;;2.70;1.90;;;18.60;62.00;;;;;;4496459;31;20282;-73
2021/12/14 07:27:25;;;;;;;4.00;2.20;;;18.60;62.00;;;;;;4494189;31;20136;-73
2021/12/14 07:29:52;;;;;;;2.20;1.80;;;18.60;61.90;;;;;;4494277;31;20133;-73
2021/12/14 07:32:38;;;;;;;2.55;1.88;;;18.50;61.90;;;;;;4496122;31;20187;-73
2021/12/14 07:35:19;;;;;;;2.95;2.00;;;18.50;61.90;;;;;;4494665;31;20221;-73
2021/12/14 07:37:46;;;;;;;2.25;1.98;;;18.50;61.90;;;;;;4494577;31;20213;-73
2021/12/14 07:40:12;;;;;;;3.22;1.80;;;18.50;61.90;;;;;;4494057;31;20144;-73
2021/12/14 07:42:39;;;;;;;2.45;2.00;;;18.50;61.90;;;;;;4493939;31;20148;-73
2021/12/14 07:45:06;;;;;;;2.45;1.67;;;18.50;62.00;;;;;;4468470;31;20111;-72
2021/12/14 07:47:33;;;;;;;3.80;2.35;;;18.50;62.00;;;;;;4493432;31;20144;-69
2021/12/14 07:50:00;;;;;;;4.40;3.50;;;18.50;62.00;;;;;;4494925;31;20124;-69
2021/12/14 07:52:35;;;;;;;7.45;5.30;;;18.50;62.70;;;;;;4494410;31;20481;-69
2021/12/14 07:55:10;;;;;;;7.13;5.63;;;18.50;61.50;;;;;;4495279;31;20487;-69
2021/12/14 07:57:37;;;;;;;7.00;6.10;;;18.50;61.10;;;;;;4494269;31;20144;-76
2021/12/14 08:00:06;;;;;;;8.93;6.15;;;18.50;61.10;;;;;;4494638;31;20525;-71
2021/12/14 08:02:39;;;;;;;6.35;5.75;;;18.50;61.20;;;;;;4497781;31;20261;-72
2021/12/14 08:05:24;;;;;;;8.20;5.28;;;18.40;61.30;;;;;;4492865;31;20278;-71
2021/12/14 08:08:07;;;;;;;6.68;5.47;;;18.40;61.30;;;;;;4494258;31;20690;-74
2021/12/14 08:10:39;;;;;;;6.40;5.07;;;18.40;61.30;;;;;;4499845;31;20148;-74
2021/12/14 08:13:09;;;;;;;7.47;4.90;;;18.40;61.30;;;;;;4494125;31;20132;-75
2021/12/14 08:15:43;;;;;;;5.50;4.50;;;18.50;61.40;;;;;;4496309;31;20140;-72
2021/12/14 08:18:19;;;;;;;5.95;4.18;;;18.50;61.30;;;;;;4493159;31;20129;-73
2021/12/14 08:21:05;;;;;;;5.28;4.13;;;18.60;61.30;;;;;;4494921;31;20292;-74
2021/12/14 08:23:35;;;;;;;6.65;4.38;;;18.60;61.20;;;;;;4495365;31;20609;-72
2021/12/14 08:26:06;;;;;;;4.88;3.60;;;18.70;60.90;;;;;;4492365;31;20131;-67
2021/12/14 08:28:54;;;;;;;4.28;3.30;;;18.90;60.70;;;;;;4494165;31;20125;-74
2021/12/14 08:31:23;;;;;;;16.63;3.40;;;19.00;60.50;;;;;;4492900;31;20263;-71
2021/12/14 08:33:57;;;;;;;3.60;2.88;;;19.10;60.20;;;;;;4498114;31;20149;-71
2021/12/14 08:36:24;;;;;;;4.22;2.97;;;19.20;60.10;;;;;;4495519;31;20302;-72
2021/12/14 08:39:13;;;;;;;4.25;2.85;;;19.40;60.00;;;;;;4493083;31;20477;-71
2021/12/14 08:41:48;;;;;;;5.00;2.83;;;19.50;60.10;;;;;;4494814;31;20190;-72
2021/12/14 08:44:20;;;;;;;5.50;2.72;;;19.50;59.80;;;;;;4491573;31;20143;-71
2021/12/14 08:46:51;;;;;;;4.82;2.30;;;19.60;59.70;;;;;;4492700;31;20139;-72
2021/12/14 08:49:19;;;;;;;5.35;2.55;;;19.60;59.60;;;;;;4495030;31;20121;-73
2021/12/14 08:51:47;;;;;;;3.38;2.10;;;19.70;59.60;;;;;;4493069;31;20197;-72
2021/12/14 08:54:21;;;;;;;3.75;2.35;;;19.80;59.50;;;;;;4493542;31;20241;-71
2021/12/14 08:56:53;;;;;;;2.92;2.00;;;19.90;59.40;;;;;;4492497;31;20155;-71
2021/12/14 08:59:20;;;;;;;4.82;1.95;;;20.00;59.20;;;;;;4480043;31;20255;-72
2021/12/14 09:01:47;;;;;;;6.05;1.85;;;20.10;59.10;;;;;;4494152;31;20217;-72
2021/12/14 09:04:24;;;;;;;3.03;1.92;;;20.10;58.80;;;;;;4492324;31;20123;-74
2021/12/14 09:06:54;;;;;;;2.95;1.77;;;20.20;58.70;;;;;;4493444;31;20160;-72
2021/12/14 09:09:23;;;;;;;;;;;20.30;58.50;;;;;;4493933;31;20124;-72
2021/12/14 09:12:14;;;;;;;4.03;1.55;;;20.40;58.50;;;;;;4494145;31;20110;-71
2021/12/14 09:14:41;;;;;;;4.43;1.70;;;20.50;58.20;;;;;;4501256;31;20170;-70
2021/12/14 09:17:10;;;;;;;2.60;1.50;;;20.60;58.00;;;;;;4484796;31;20132;-71
2021/12/14 09:19:43;;;;;;;4.57;1.48;;;20.70;57.90;;;;;;4490534;31;20138;-72
2021/12/14 09:22:17;;;;;;;2.55;1.50;;;20.80;57.70;;;;;;4507942;31;20144;-72
2021/12/14 09:24:44;;;;;;;4.45;1.63;;;20.90;57.60;;;;;;4501067;31;20132;-71
2021/12/14 09:27:17;;;;;;;2.83;1.65;;;21.00;57.40;;;;;;4492447;31;20136;-72
2021/12/14 09:29:43;;;;;;;6.00;1.63;;;21.10;57.30;;;;;;4492895;31;20865;-72
2021/12/14 09:32:13;;;;;;;3.10;1.60;;;21.10;57.10;;;;;;4494602;31;20152;-74
2021/12/14 09:34:40;;;;;;;4.90;1.35;;;21.20;57.00;;;;;;4492964;31;20190;-70
2021/12/14 09:37:10;;;;;;;2.47;1.48;;;21.20;57.00;;;;;;4495240;31;20145;-71
2021/12/14 09:39:42;;;;;;;4.25;1.48;;;21.20;57.00;;;;;;4492175;31;20178;-73
2021/12/14 09:42:12;;;;;;;4.72;1.45;;;21.20;57.10;;;;;;4494287;31;20167;-69
2021/12/14 09:44:38;;;;;;;3.70;1.70;;;21.10;57.20;;;;;;4493223;32;20124;-71
2021/12/14 09:47:09;;;;;;;6.45;1.70;;;21.10;57.40;;;;;;4493608;32;20258;-73
2021/12/14 09:49:39;;;;;;;4.03;1.85;;;21.00;57.50;;;;;;4494023;32;20155;-71
2021/12/14 09:52:24;;;;;;;4.85;1.77;;;21.00;57.80;;;;;;4492599;32;20632;-69
2021/12/14 09:54:52;;;;;;;4.72;1.73;;;20.90;57.90;;;;;;4493206;31;20137;-68
2021/12/14 09:57:44;;;;;;;5.13;1.40;;;20.80;59.00;;;;;;4493002;32;20128;-71
2021/12/14 10:00:17;;;;;;;6.57;2.17;;;20.80;58.20;;;;;;4492102;32;20145;-70
2021/12/14 10:02:45;;;;;;;2.13;1.50;;;20.80;58.30;;;;;;4494261;31;20128;-71
2021/12/14 10:05:22;;;;;;;3.75;1.60;;;20.70;58.30;;;;;;4502978;31;20139;-72
2021/12/14 10:07:49;;;;;;;4.72;2.70;;;20.70;58.50;;;;;;4504203;31;20132;-69
2021/12/14 10:10:18;;;;;;;7.47;2.75;;;20.70;58.50;;;;;;4492797;31;20137;-71
2021/12/14 10:12:54;;;;;;;3.92;2.55;;;20.70;58.50;;;;;;4495280;31;20124;-70
2021/12/14 10:15:31;;;;;;;2.03;1.63;;;20.60;58.60;;;;;;4498360;31;20149;-71
2021/12/14 10:18:06;;;;;;;3.65;2.10;;;20.60;58.70;;;;;;4496304;31;20245;-71
2021/12/14 10:20:47;;;;;;;4.20;2.00;;;20.60;58.80;;;;;;4496657;31;20198;-73
2021/12/14 10:23:14;;;;;;;2.70;1.77;;;20.60;58.90;;;;;;4496177;31;20274;-76
2021/12/14 10:25:40;;;;;;;3.75;1.70;;;20.60;59.00;;;;;;4481488;31;20143;-73
2021/12/14 10:28:06;;;;;;;5.07;1.67;;;20.60;59.00;;;;;;4496361;31;20282;-70
2021/12/14 10:30:37;;;;;;;3.25;1.88;;;20.60;59.10;;;;;;4495404;31;20136;-71
2021/12/14 10:33:05;;;;;;;7.38;1.88;;;20.50;59.00;;;;;;4497536;31;20139;-73
2021/12/14 10:35:39;;;;;;;2.72;1.30;;;20.50;59.10;;;;;;4495848;31;20579;-72
2021/12/14 10:38:20;;;;;;;2.80;1.42;;;20.50;59.10;;;;;;4495614;31;20202;-72
2021/12/14 10:43:38;;;;;;;4.10;1.60;;;20.60;59.30;;;;;;4495452;31;20128;-70
2021/12/14 10:46:19;;;;;;;3.67;1.80;;;20.50;59.20;;;;;;4498261;31;20133;-73
2021/12/14 10:48:48;;;;;;;4.10;1.35;;;20.50;59.30;;;;;;4495458;31;20258;-73
2021/12/14 10:51:21;;;;;;;6.18;1.60;;;20.50;59.30;;;;;;4497540;31;20156;-68
2021/12/14 10:53:49;;;;;;;2.58;1.40;;;20.50;59.30;;;;;;4513070;31;20139;-71
2021/12/14 10:56:20;;;;;;;3.67;1.65;;;20.50;59.40;;;;;;4510546;31;20262;-73
2021/12/14 10:58:49;;;;;;;4.72;1.60;;;20.50;59.50;;;;;;4511909;31;20611;-73
2021/12/14 11:01:19;;;;;;;4.90;1.50;;;20.50;59.50;;;;;;4511921;31;20136;-74
2021/12/14 11:03:49;;;;;;;3.65;1.50;;;20.50;59.50;;;;;;4512275;31;20128;-72
2021/12/14 11:06:22;;;;;;;5.10;1.60;;;20.50;59.50;;;;;;4496419;31;20141;-71
2021/12/14 11:11:37;;;;;;;6.38;1.60;;;20.60;59.40;;;;;;4496073;31;20266;-72
2021/12/14 11:14:14;;;;;;;2.72;1.35;;;20.70;59.20;;;;;;4495085;31;20636;-73
2021/12/14 11:19:59;;;;;;;2.78;1.42;;;20.80;58.90;;;;;;4510899;31;20175;-71
2021/12/14 11:22:33;;;;;;;2.63;1.20;;;20.90;58.70;;;;;;4506424;31;20120;-74
2021/12/14 11:25:08;;;;;;;2.00;1.20;;;20.90;58.50;;;;;;4512293;31;20132;-72
2021/12/14 11:27:41;;;;;;;3.35;1.73;;;20.90;58.50;;;;;;4512207;31;20142;-72
2021/12/14 11:30:18;;;;;;;5.25;1.63;;;21.00;58.40;;;;;;4505543;31;20676;-72
2021/12/14 11:32:48;;;;;;;5.53;1.42;;;21.00;58.30;;;;;;4496797;31;20132;-73
2021/12/14 11:35:27;;;;;;;3.45;1.27;;;21.00;58.30;;;;;;4495432;31;20141;-73
2021/12/14 11:37:58;;;;;;;3.97;1.75;;;21.00;58.30;;;;;;4494375;31;20163;-72
2021/12/14 11:40:27;;;;;;;3.70;1.40;;;21.00;58.20;;;;;;4496111;31;20146;-72
2021/12/14 11:43:18;;;;;;;8.77;1.88;;;21.00;58.20;;;;;;4493234;31;20219;-71
2021/12/14 11:45:47;;;;;;;3.90;2.00;;;21.00;58.30;;;;;;4498032;31;20139;-71
2021/12/14 11:48:14;;;;;;;2.97;1.60;;;21.00;58.20;;;;;;4494368;31;20199;-73
2021/12/14 11:50:47;;;;;;;4.68;1.50;;;21.00;58.30;;;;;;4497627;31;20637;-72
2021/12/14 11:53:20;;;;;;;1.60;1.30;;;21.00;58.30;;;;;;4496360;31;20132;-70
2021/12/14 11:55:59;;;;;;;4.43;1.40;;;21.10;58.20;;;;;;4503040;31;20197;-73
2021/12/14 11:58:46;;;;;;;3.58;1.50;;;21.10;58.30;;;;;;4495565;31;20144;-73
2021/12/14 12:01:29;;;;;;;2.40;1.52;;;21.10;58.20;;;;;;4494639;31;20531;-72
2021/12/14 12:04:13;;;;;;;2.10;1.38;;;21.10;58.20;;;;;;4494441;31;20274;-72
2021/12/14 12:09:35;;;;;;;7.35;1.60;;;21.20;58.10;;;;;;4494463;31;20147;-72
2021/12/14 12:12:05;;;;;;;3.88;1.40;;;21.20;58.10;;;;;;4494449;31;20128;-74
2021/12/14 12:14:35;;;;;;;2.92;1.23;;;21.20;59.00;;;;;;4494771;31;20156;-75
2021/12/14 12:17:14;;;;;;;1.73;1.30;;;21.20;58.10;;;;;;4494312;31;20155;-75
2021/12/14 12:19:53;;;;;;;3.70;1.55;;;21.20;58.20;;;;;;4499069;31;20147;-75
2021/12/14 12:22:19;;;;;;;1.92;1.40;;;21.20;58.10;;;;;;4503518;31;20136;-75
2021/12/14 12:24:50;;;;;;;3.17;1.13;;;21.20;58.10;;;;;;4494705;31;20137;-76
2021/12/14 12:27:29;;;;;;;4.88;1.52;;;21.20;58.00;;;;;;4494305;31;20201;-75
2021/12/14 12:30:04;;;;;;;1.35;1.20;;;21.10;58.20;;;;;;4499363;31;20274;-74
2021/12/14 12:32:32;;;;;;;4.53;1.63;;;21.10;58.20;;;;;;4500267;31;20125;-76
2021/12/14 12:34:58;;;;;;;5.22;1.25;;;21.10;58.20;;;;;;4493410;31;20132;-75
2021/12/14 12:37:42;;;;;;;4.13;1.10;;;21.10;58.30;;;;;;4494982;31;20152;-75
2021/12/14 12:40:10;;;;;;;;;;;21.00;58.50;;;;;;4494844;31;20221;-72
2021/12/14 12:42:36;;;;;;;2.67;1.50;;;21.00;58.60;;;;;;4492961;31;20025;-74
2021/12/14 12:45:24;;;;;;;23.75;2.35;;;21.00;58.60;;;;;;4494834;31;20844;-71
2021/12/14 12:47:50;;;;;;;7.68;2.65;;;21.00;58.70;;;;;;4492934;31;20140;-71
2021/12/14 12:50:16;;;;;;;15.50;3.15;;;21.00;58.50;;;;;;4504795;31;20173;-73
2021/12/14 12:52:43;;;;;;;12.88;2.70;;;21.00;58.10;;;;;;4492620;31;20305;-74
2021/12/14 12:55:13;;;;;;;19.35;3.40;;;21.00;57.90;;;;;;4489432;31;20136;-71
2021/12/14 12:57:46;;;;;;;6.88;3.10;;;20.90;57.80;;;;;;4491880;31;20171;-72
2021/12/14 13:00:12;;;;;;;7.65;3.03;;;20.90;57.60;;;;;;4492080;31;20162;-72
2021/12/14 13:02:45;;;;;;;7.47;3.10;;;20.90;57.60;;;;;;4493795;31;20128;-73
2021/12/14 13:05:26;;;;;;;4.27;2.93;;;20.80;57.50;;;;;;4507393;31;20132;-71
2021/12/14 13:08:00;;;;;;;8.80;3.65;;;20.70;57.30;;;;;;4509582;31;20604;-73
2021/12/14 13:10:35;;;;;;;11.18;3.08;;;20.70;57.20;;;;;;4507530;31;20297;-70
2021/12/14 13:13:00;;;;;;;4.30;3.08;;;20.60;57.00;;;;;;4493154;31;20139;-68
2021/12/14 13:15:31;;;;;;;4.22;3.30;;;20.60;56.90;;;;;;4480662;31;20120;-71
2021/12/14 13:18:25;;;;;;;4.68;3.28;;;20.50;56.90;;;;;;4494316;31;20191;-74
2021/12/14 13:21:20;;;;;;;4.25;3.10;;;20.40;56.80;;;;;;4493312;31;20128;-73
2021/12/14 13:24:12;;;;;;;6.50;2.63;;;20.30;56.60;;;;;;4494759;31;20726;-72
2021/12/14 13:26:47;;;;;;;2.85;2.15;;;20.30;57.10;;;;;;4490386;31;20186;-72
2021/12/14 13:29:14;;;;;;;2.70;2.08;;;20.20;57.30;;;;;;4479450;31;20163;-73
2021/12/14 13:31:51;;;;;;;2.40;2.00;;;20.20;57.50;;;;;;4494401;31;20145;-73
2021/12/14 13:34:32;;;;;;;1.75;1.65;;;20.20;57.80;;;;;;4493350;31;20137;-73
2021/12/14 13:36:59;;;;;;;3.50;1.90;;;20.10;57.90;;;;;;4495637;31;20136;-75
2021/12/14 13:39:26;;;;;;;2.28;1.65;;;20.10;58.20;;;;;;4498009;31;20213;-72
2021/12/14 13:42:07;;;;;;;3.97;1.60;;;20.10;58.30;;;;;;4498918;31;20143;-74
2021/12/14 13:44:39;;;;;;;3.58;1.58;;;20.00;58.40;;;;;;4499574;31;20132;-73
2021/12/14 13:47:10;;;;;;;2.88;1.30;;;20.00;58.70;;;;;;4499703;31;20231;-73
2021/12/14 13:49:39;;;;;;;3.00;1.40;;;20.00;58.80;;;;;;4499970;31;20139;-73
2021/12/14 13:52:09;;;;;;;2.17;1.13;;;20.00;59.00;;;;;;4497704;31;20270;-75